KSAT/SAT METAR and TAF weather

Enter ICAO airport designator
Station Type Date Time Source
KSAT METAR 2021/05/15 01:51 UTC NOAA

KSAT 150151Z 13012G20KT 10SM SCT039 BKN070 OVC250 26/17 A3008 RMK AO2 SLP169 T02560167


Station Type Date Time Source
KSAT Decoded METAR 2021/05/15 01:51 UTC NOAA

SAN ANTONIO INTERNATIONAL AIRPORT , TX, United States (KSAT) 29-32N 098-28W 243M
May 14, 2021 - 09:51 PM EDT / 2021.05.15 0151 UTC
Wind: from the SE (130 degrees) at 14 MPH (12 KT) gusting to 23 MPH (20 KT):0
Visibility: 10 mile(s):0
Sky conditions: overcast
Temperature: 78.1 F (25.6 C)
Dew Point: 62.1 F (16.7 C)
Relative Humidity: 57%
Pressure (altimeter): 30.08 in. Hg (1018 hPa)
ob: KSAT 150151Z 13012G20KT 10SM SCT039 BKN070 OVC250 26/17 A3008 RMK AO2 SLP169 T02560167
cycle: 2

Station Type Date Time Source
KSAT TAF 2021/05/14 18:30 UTC NOAA

TAF KSAT 141727Z 1418/1524 14008KT P6SM SCT040 BKN250
FM150200 13010G20KT P6SM BKN150
FM150600 14012KT P6SM BKN018
FM151100 13009KT P6SM OVC009 PROB30 1518/1521 4SM TSRA BR OVC010CB

Example: see airport list